Time;durP1;ratioP1;P1;durP2;ratioP2;P2;SDS_P1;SDS_P2;PMS_P1;PMS_P2;Temp;Humidity;BMP_temperature;BMP_pressure;BME280_temperature;BME280_humidity;BME280_pressure;Samples;Min_cycle;Max_cycle;Signal;HPM_P1;HPM_P2
2023/08/26 00:00:51;;;;;;;3.83;2.53;;;;;;;25.18;48.80;100984.81;5001494;28;20267;-34
2023/08/26 00:03:18;;;;;;;3.92;2.35;;;;;;;25.17;49.47;100985.84;5003972;28;20073;-34
2023/08/26 00:05:45;;;;;;;3.58;2.45;;;;;;;25.15;48.86;100969.75;5007027;28;20050;-34
2023/08/26 00:08:11;;;;;;;3.38;2.22;;;;;;;25.16;49.50;100976.00;4999844;28;20058;-34
2023/08/26 00:10:38;;;;;;;3.50;2.30;;;;;;;25.16;49.12;100981.44;5003665;28;20115;-35
2023/08/26 00:13:05;;;;;;;4.22;2.30;;;;;;;25.15;49.30;100979.75;5002813;28;20429;-34
2023/08/26 00:15:32;;;;;;;3.63;2.20;;;;;;;25.15;49.27;100986.03;5000209;28;20053;-34
2023/08/26 00:17:58;;;;;;;3.10;2.20;;;;;;;25.12;49.27;100975.56;5004475;28;20053;-34
2023/08/26 00:20:27;;;;;;;4.20;2.22;;;;;;;25.12;49.23;100972.84;5003497;28;20054;-34
2023/08/26 00:22:53;;;;;;;4.07;2.35;;;;;;;25.11;49.11;100973.88;4998192;28;20050;-34
2023/08/26 00:25:20;;;;;;;2.42;1.83;;;;;;;25.09;49.12;100982.25;5005146;28;20137;-34
2023/08/26 00:27:46;;;;;;;3.75;2.40;;;;;;;25.10;49.29;100977.66;5003202;28;20309;-34
2023/08/26 00:30:13;;;;;;;3.50;2.20;;;;;;;25.08;49.16;100983.22;5003974;28;20133;-34
2023/08/26 00:32:40;;;;;;;4.22;2.40;;;;;;;25.08;49.28;100985.09;5004268;28;20394;-34
2023/08/26 00:35:06;;;;;;;3.17;2.03;;;;;;;25.08;49.46;100983.22;5001870;28;20464;-34
2023/08/26 00:37:33;;;;;;;3.83;2.05;;;;;;;25.08;49.14;100976.97;5001687;28;20057;-34
2023/08/26 00:40:00;;;;;;;4.18;2.15;;;;;;;25.07;49.19;100972.56;5003696;28;20127;-34
2023/08/26 00:42:26;;;;;;;2.85;2.05;;;;;;;25.06;49.31;100968.19;5000927;28;20045;-34
2023/08/26 00:44:53;;;;;;;3.13;1.77;;;;;;;25.06;49.30;100970.91;5000603;28;20104;-34
2023/08/26 00:47:19;;;;;;;3.17;1.90;;;;;;;25.04;49.35;100973.78;5001348;28;20167;-34
2023/08/26 00:49:46;;;;;;;2.50;1.90;;;;;;;25.05;49.58;100974.66;5004302;28;20100;-34
2023/08/26 00:52:12;;;;;;;2.80;1.92;;;;;;;25.03;49.19;100966.72;5003739;28;20050;-34
2023/08/26 00:54:39;;;;;;;2.95;2.10;;;;;;;25.03;49.50;100969.41;5004605;28;20046;-34
2023/08/26 00:57:08;;;;;;;3.50;2.03;;;;;;;25.03;49.48;100968.59;5000163;28;20050;-34
2023/08/26 00:59:35;;;;;;;3.08;1.95;;;;;;;25.01;49.24;100966.09;4999801;28;20056;-34
2023/08/26 01:02:02;;;;;;;3.20;1.98;;;;;;;25.01;49.57;100965.25;5002332;28;20078;-34
2023/08/26 01:04:29;;;;;;;4.13;2.22;;;;;;;25.00;49.40;100964.38;5000854;28;20077;-34
2023/08/26 01:06:55;;;;;;;2.53;1.80;;;;;;;24.99;49.05;100968.13;4998369;28;20144;-34
2023/08/26 01:09:22;;;;;;;2.63;1.70;;;;;;;24.97;49.39;100972.94;4998308;28;20125;-34
2023/08/26 01:11:51;;;;;;;2.55;1.70;;;;;;;24.96;49.27;100971.22;5002757;28;20082;-34
2023/08/26 01:14:33;;;;;;;3.28;1.90;;;;;;;24.95;49.66;100974.16;4995857;28;20138;-34
2023/08/26 01:17:03;;;;;;;2.60;1.83;;;;;;;24.95;49.51;100969.56;5003408;28;20046;-34
2023/08/26 01:19:35;;;;;;;5.15;1.83;;;;;;;24.93;49.59;100973.53;5004604;28;20053;-34
2023/08/26 01:22:05;;;;;;;2.38;1.77;;;;;;;24.92;49.18;100971.81;5008161;28;20473;-34
2023/08/26 01:24:33;;;;;;;2.38;1.60;;;;;;;24.90;49.65;100966.63;5006046;28;20053;-34
2023/08/26 01:27:00;;;;;;;2.42;1.98;;;;;;;24.89;49.17;100969.53;5003938;28;20093;-34
2023/08/26 01:29:26;;;;;;;4.20;1.55;;;;;;;24.88;49.35;100968.66;4999522;28;20073;-34
2023/08/26 01:32:17;;;;;;;2.75;1.55;;;;;;;24.86;49.43;100958.03;5005921;28;20133;-34
2023/08/26 01:34:49;;;;;;;4.38;2.08;;;;;;;24.85;49.00;100955.53;5004023;28;20042;-34
2023/08/26 01:37:18;;;;;;;2.47;1.63;;;;;;;24.84;49.50;100961.97;5016862;28;20056;-34
2023/08/26 01:39:46;;;;;;;2.95;1.58;;;;;;;24.82;49.35;100962.16;5004359;28;20125;-34
2023/08/26 01:42:14;;;;;;;4.20;2.15;;;;;;;24.80;49.04;100961.50;5002855;28;20077;-34
2023/08/26 01:44:41;;;;;;;3.70;1.73;;;;;;;24.79;49.33;100959.00;5004099;28;20189;-34
2023/08/26 01:47:08;;;;;;;2.78;1.83;;;;;;;24.78;49.09;100960.88;5000807;28;20097;-34
2023/08/26 01:49:35;;;;;;;2.92;1.52;;;;;;;24.77;49.32;100969.22;5002670;28;20137;-34
2023/08/26 01:52:01;;;;;;;4.15;1.35;;;;;;;24.76;49.70;100960.22;5004293;28;20137;-34
2023/08/26 01:54:28;;;;;;;2.72;1.58;;;;;;;24.76;49.28;100960.22;5007264;28;20042;-34
2023/08/26 01:56:54;;;;;;;4.03;1.38;;;;;;;24.74;49.73;100962.31;5010441;28;20434;-34
2023/08/26 01:59:21;;;;;;;4.57;1.70;;;;;;;24.73;49.69;100960.63;5008069;28;20074;-35
2023/08/26 02:01:48;;;;;;;4.65;1.23;;;;;;;24.72;49.73;100971.66;5006464;28;20049;-34
2023/08/26 02:04:14;;;;;;;2.20;1.38;;;;;;;24.71;49.70;100967.28;5007839;28;20041;-34
2023/08/26 02:06:42;;;;;;;3.97;1.50;;;;;;;24.70;49.57;100971.03;5007348;28;20129;-34
2023/08/26 02:09:09;;;;;;;1.83;1.10;;;;;;;24.70;49.58;100969.16;5008076;28;20045;-34
2023/08/26 02:11:35;;;;;;;3.83;1.27;;;;;;;24.68;49.32;100965.78;5010327;28;20132;-34
2023/08/26 02:14:02;;;;;;;2.75;1.30;;;;;;;24.68;49.17;100971.19;5004459;28;20128;-34
2023/08/26 02:16:28;;;;;;;3.22;1.52;;;;;;;24.67;49.21;100974.13;5007477;28;20125;-34
2023/08/26 02:18:55;;;;;;;1.65;1.00;;;;;;;24.66;49.44;100973.28;5000693;28;20054;-34
2023/08/26 02:21:22;;;;;;;4.22;1.38;;;;;;;24.67;49.66;100971.41;5006062;28;20108;-34
2023/08/26 02:23:48;;;;;;;2.42;1.35;;;;;;;24.64;49.69;100978.03;5005518;28;20081;-34
2023/08/26 02:26:15;;;;;;;2.78;1.15;;;;;;;24.63;48.96;100977.22;5011341;28;20101;-34
2023/08/26 02:28:41;;;;;;;2.75;1.40;;;;;;;24.61;49.28;100979.28;5012050;28;20115;-34
2023/08/26 02:31:08;;;;;;;2.78;1.25;;;;;;;24.60;49.11;100972.19;5008162;28;20054;-34
2023/08/26 02:33:35;;;;;;;3.53;1.20;;;;;;;24.59;49.61;100966.97;5006345;28;20045;-34
2023/08/26 02:36:01;;;;;;;2.30;1.30;;;;;;;24.58;49.25;100968.84;5005359;28;20060;-34
2023/08/26 02:38:31;;;;;;;3.45;1.40;;;;;;;24.56;49.18;100965.50;5006059;28;20056;-34
2023/08/26 02:40:58;;;;;;;1.83;1.00;;;;;;;24.57;49.40;100977.16;5007673;28;20053;-34
2023/08/26 02:43:24;;;;;;;1.35;0.95;;;;;;;24.54;49.19;100970.25;5007173;28;20141;-34
2023/08/26 02:45:52;;;;;;;3.15;1.15;;;;;;;24.53;49.56;100965.88;5004997;28;20385;-34
2023/08/26 02:48:20;;;;;;;3.22;1.08;;;;;;;24.52;49.60;100963.34;5005884;28;20054;-34
2023/08/26 02:50:46;;;;;;;3.25;1.20;;;;;;;24.50;49.46;100965.41;5007447;28;20402;-34
2023/08/26 02:53:13;;;;;;;5.05;1.55;;;;;;;24.48;49.11;100964.75;5000716;28;20060;-34
2023/08/26 02:55:40;;;;;;;2.70;1.20;;;;;;;24.47;49.18;100965.78;5005937;28;20050;-34
2023/08/26 02:58:06;;;;;;;4.03;1.20;;;;;;;24.45;49.06;100967.88;5010867;28;20046;-34
2023/08/26 03:00:33;;;;;;;2.58;1.17;;;;;;;24.44;49.42;100961.59;5011054;28;20129;-34
2023/08/26 03:03:00;;;;;;;4.38;1.25;;;;;;;24.42;49.26;100963.69;5009770;28;20100;-34
2023/08/26 03:05:26;;;;;;;3.33;1.40;;;;;;;24.42;48.91;100960.13;5005661;28;20116;-33
2023/08/26 03:07:53;;;;;;;3.20;1.45;;;;;;;24.41;49.07;100953.88;4999902;28;20116;-34
2023/08/26 03:10:20;;;;;;;2.28;1.27;;;;;;;24.40;49.67;100957.59;5006288;28;20078;-34
2023/08/26 03:12:46;;;;;;;3.25;1.40;;;;;;;24.40;49.57;100956.75;5004217;28;20058;-34
2023/08/26 03:15:13;;;;;;;4.93;1.10;;;;;;;24.38;49.03;100963.22;5004772;28;20076;-34
2023/08/26 03:17:40;;;;;;;2.30;1.20;;;;;;;24.38;49.38;100965.94;5006311;28;20104;-34
2023/08/26 03:20:07;;;;;;;2.00;1.00;;;;;;;24.38;49.27;100978.63;5006411;28;20061;-34
2023/08/26 03:22:33;;;;;;;1.83;1.20;;;;;;;24.37;49.42;100974.22;5002832;28;20056;-34
2023/08/26 03:25:00;;;;;;;2.08;1.10;;;;;;;24.37;49.78;100974.22;5009246;28;20076;-34
2023/08/26 03:27:26;;;;;;;1.73;1.10;;;;;;;24.35;49.54;100974.41;5005045;28;20054;-34
2023/08/26 03:29:53;;;;;;;2.17;1.20;;;;;;;24.35;49.64;100968.97;5004720;28;20112;-34
2023/08/26 03:32:20;;;;;;;2.55;1.30;;;;;;;24.35;49.77;100965.44;5006605;28;20050;-34
2023/08/26 03:34:47;;;;;;;5.57;0.95;;;;;;;24.34;49.85;100961.06;5009500;28;20109;-34
2023/08/26 03:37:13;;;;;;;1.75;1.05;;;;;;;24.34;49.16;100961.88;5006571;28;20057;-34
2023/08/26 03:39:40;;;;;;;4.93;1.38;;;;;;;24.32;49.57;100963.97;5003176;28;20100;-34
2023/08/26 03:42:06;;;;;;;2.50;1.02;;;;;;;24.30;49.67;100957.06;5004851;28;20154;-34
2023/08/26 03:44:33;;;;;;;2.45;1.27;;;;;;;24.30;49.58;100959.75;5006886;28;20077;-34
2023/08/26 03:46:59;;;;;;;5.35;1.30;;;;;;;24.28;49.08;100956.41;5003787;28;20125;-34
2023/08/26 03:49:26;;;;;;;4.70;1.23;;;;;;;24.27;49.35;100963.69;5002702;28;20128;-34
2023/08/26 03:51:53;;;;;;;2.92;1.00;;;;;;;24.24;49.71;100958.69;5008357;28;20081;-34
2023/08/26 03:54:19;;;;;;;4.90;1.48;;;;;;;24.24;49.38;100960.50;5005717;28;20077;-34
2023/08/26 03:56:46;;;;;;;3.17;1.10;;;;;;;24.24;49.21;100966.81;5006060;28;20041;-34
2023/08/26 03:59:12;;;;;;;3.75;1.23;;;;;;;24.22;49.27;100966.13;5002155;28;20112;-34
2023/08/26 04:01:39;;;;;;;2.20;1.05;;;;;;;24.21;49.43;100971.75;5006710;28;20069;-34
2023/08/26 04:04:05;;;;;;;3.58;0.90;;;;;;;24.20;49.28;100961.94;5005556;28;20136;-34
2023/08/26 04:06:33;;;;;;;2.42;0.95;;;;;;;24.20;49.83;100964.63;5008217;28;20046;-34
2023/08/26 04:09:02;;;;;;;2.15;0.90;;;;;;;24.20;49.57;100967.34;5004405;28;20050;-34
2023/08/26 04:11:29;;;;;;;4.50;1.23;;;;;;;24.18;49.79;100967.56;5007017;28;20045;-34
2023/08/26 04:13:56;;;;;;;2.40;1.20;;;;;;;24.18;49.64;100978.38;5003117;28;20082;-34
2023/08/26 04:16:22;;;;;;;4.25;0.90;;;;;;;24.17;49.47;100979.44;5004714;28;20594;-33
2023/08/26 04:18:49;;;;;;;2.90;1.08;;;;;;;24.16;49.59;100974.19;5001293;28;20756;-34
2023/08/26 04:21:15;;;;;;;1.38;0.90;;;;;;;24.13;49.33;100973.53;5002442;28;20115;-34
2023/08/26 04:23:42;;;;;;;3.30;1.02;;;;;;;24.13;49.46;100981.69;5002197;28;20541;-33
2023/08/26 04:26:09;;;;;;;3.45;1.20;;;;;;;24.11;49.80;100983.72;5006042;28;20395;-34
2023/08/26 04:28:35;;;;;;;1.48;0.90;;;;;;;24.10;49.55;100983.91;5007566;28;20057;-34
2023/08/26 04:31:02;;;;;;;2.65;1.13;;;;;;;24.09;49.85;100985.78;5005022;28;20062;-33
2023/08/26 04:33:29;;;;;;;3.28;1.13;;;;;;;24.08;49.42;100980.53;5002460;28;20054;-33
2023/08/26 04:35:56;;;;;;;4.28;1.10;;;;;;;24.07;49.19;100977.00;5003715;28;20042;-34
2023/08/26 04:38:22;;;;;;;2.97;1.23;;;;;;;24.07;49.61;100985.13;5004601;28;20129;-34
2023/08/26 04:40:49;;;;;;;2.03;1.10;;;;;;;24.05;49.47;101000.75;5005765;28;20042;-34
2023/08/26 04:43:16;;;;;;;3.25;1.23;;;;;;;24.06;49.83;101004.28;5008560;28;20791;-36
2023/08/26 04:45:43;;;;;;;3.60;0.80;;;;;;;24.05;49.57;101002.63;5003407;28;20038;-34
2023/08/26 04:48:10;;;;;;;3.72;1.17;;;;;;;24.04;49.87;101007.19;5005449;28;20160;-34
2023/08/26 04:50:37;;;;;;;2.17;0.80;;;;;;;24.03;49.13;101002.78;5005093;28;20128;-33
2023/08/26 04:53:04;;;;;;;3.72;1.10;;;;;;;24.03;49.79;101021.75;5000776;28;20056;-34
2023/08/26 04:55:31;;;;;;;1.80;1.02;;;;;;;24.02;49.71;101022.78;5000994;28;20081;-33
2023/08/26 04:57:59;;;;;;;3.38;1.02;;;;;;;24.02;49.96;101030.91;5003322;28;20064;-34
2023/08/26 05:00:26;;;;;;;5.72;1.00;;;;;;;24.02;49.72;101032.78;5002894;28;20050;-34
2023/08/26 05:02:53;;;;;;;1.23;0.70;;;;;;;24.01;49.57;101031.94;5006570;28;20061;-33
2023/08/26 05:05:20;;;;;;;2.65;1.10;;;;;;;24.01;49.48;101034.66;5006749;28;20041;-34
2023/08/26 05:07:47;;;;;;;1.73;0.88;;;;;;;24.01;49.70;101037.34;5002071;28;20081;-33
2023/08/26 05:10:13;;;;;;;3.50;1.02;;;;;;;24.01;49.63;101034.66;5000178;28;20045;-34
2023/08/26 05:12:40;;;;;;;3.15;1.08;;;;;;;24.02;50.18;101035.47;4997081;28;20053;-34
2023/08/26 05:15:07;;;;;;;2.13;0.90;;;;;;;24.01;49.92;101034.66;5004421;28;20046;-34
2023/08/26 05:17:33;;;;;;;3.13;1.30;;;;;;;24.02;49.46;101035.47;5000238;28;20051;-34
2023/08/26 05:20:00;;;;;;;1.67;1.00;;;;;;;24.03;49.73;101031.72;5001337;28;20058;-34
2023/08/26 05:22:27;;;;;;;3.13;0.82;;;;;;;24.02;50.21;101030.06;5002763;28;20085;-34
2023/08/26 05:24:53;;;;;;;1.95;0.75;;;;;;;24.02;49.96;101033.59;5001720;28;20417;-34
2023/08/26 05:27:22;;;;;;;1.88;0.80;;;;;;;24.03;50.20;101037.16;4998504;28;20129;-34
2023/08/26 05:29:49;;;;;;;1.83;0.90;;;;;;;24.05;49.72;101032.41;5002009;28;20434;-33
2023/08/26 05:32:18;;;;;;;1.95;0.85;;;;;;;24.07;49.61;101036.56;5009147;28;20049;-34
2023/08/26 05:34:44;;;;;;;2.38;0.98;;;;;;;24.09;49.63;101034.53;5010929;28;20042;-34
2023/08/26 05:37:11;;;;;;;5.15;1.10;;;;;;;24.12;49.56;101033.28;5005964;28;20257;-33
2023/08/26 05:39:37;;;;;;;1.77;0.95;;;;;;;24.13;49.68;101038.53;5002205;28;20103;-33
2023/08/26 05:42:04;;;;;;;2.47;1.02;;;;;;;24.16;49.79;101041.88;5006397;28;20108;-33
2023/08/26 05:44:31;;;;;;;5.45;2.22;;;;;;;24.19;49.42;101041.53;5006646;28;20049;-33
2023/08/26 05:46:57;;;;;;;4.50;2.03;;;;;;;24.20;49.34;101040.47;5004413;28;20390;-33
2023/08/26 05:49:24;;;;;;;5.15;2.67;;;;;;;24.21;49.57;101042.19;5005067;28;20073;-33
2023/08/26 05:51:50;;;;;;;5.97;2.65;;;;;;;24.22;49.56;101028.44;5007709;28;20145;-33
2023/08/26 05:54:17;;;;;;;5.93;2.75;;;;;;;24.23;49.42;101034.69;5006687;28;20133;-33
2023/08/26 05:56:44;;;;;;;5.65;2.15;;;;;;;24.22;49.49;101041.97;5004825;28;20426;-33
2023/08/26 05:59:10;;;;;;;6.70;3.47;;;;;;;24.21;49.13;101037.59;5005365;28;20335;-33
2023/08/26 06:01:37;;;;;;;4.82;2.67;;;;;;;24.22;49.08;101039.28;5007023;28;20426;-33
2023/08/26 06:04:05;;;;;;;4.03;2.30;;;;;;;24.21;49.58;101042.19;5005654;28;20045;-33
2023/08/26 06:06:31;;;;;;;6.10;2.88;;;;;;;24.19;49.31;101039.66;5008556;28;20579;-33
2023/08/26 06:08:58;;;;;;;4.50;2.80;;;;;;;24.19;49.48;101038.81;5004417;28;20482;-33
2023/08/26 06:11:24;;;;;;;5.32;2.72;;;;;;;24.18;49.51;101027.13;5003085;28;20093;-33
2023/08/26 06:13:51;;;;;;;5.72;2.90;;;;;;;24.18;49.54;101037.13;5002701;28;20351;-33
2023/08/26 06:16:20;;;;;;;4.60;2.47;;;;;;;24.17;49.22;101030.88;5003942;28;20471;-33
2023/08/26 06:18:47;;;;;;;5.00;2.67;;;;;;;24.18;49.62;101023.59;5004576;28;20046;-33
2023/08/26 06:21:15;;;;;;;5.70;3.08;;;;;;;24.17;49.61;101032.75;5005925;28;20082;-33
2023/08/26 06:23:41;;;;;;;5.13;3.15;;;;;;;24.17;49.17;101038.19;4998053;28;20880;-33
2023/08/26 06:26:08;;;;;;;7.05;3.10;;;;;;;24.17;49.71;101030.06;5002398;28;20101;-33
2023/08/26 06:28:35;;;;;;;6.05;3.38;;;;;;;24.18;49.41;101032.56;5005675;28;20347;-33
2023/08/26 06:31:02;;;;;;;7.13;3.55;;;;;;;24.19;49.18;101027.97;5004480;28;20104;-33
2023/08/26 06:33:29;;;;;;;5.70;3.10;;;;;;;24.19;49.03;101028.81;5000367;28;20405;-34
2023/08/26 06:35:55;;;;;;;10.32;3.60;;;;;;;24.20;49.29;101037.78;5003261;28;20090;-33
2023/08/26 06:38:22;;;;;;;5.18;3.28;;;;;;;24.20;49.12;101035.94;4999805;28;20054;-33
2023/08/26 06:40:54;;;;;;;6.15;3.22;;;;;;;24.21;49.47;101036.75;5001994;28;20353;-33
2023/08/26 06:43:21;;;;;;;6.22;2.95;;;;;;;24.20;49.13;101030.50;5003037;28;20111;-33
2023/08/26 06:45:47;;;;;;;6.28;3.47;;;;;;;24.21;48.82;101028.63;5002314;28;20333;-33
2023/08/26 06:48:15;;;;;;;5.50;3.22;;;;;;;24.21;49.17;101013.22;5005450;28;20053;-33
2023/08/26 06:50:46;;;;;;;5.03;3.05;;;;;;;24.22;49.17;101012.19;4999096;28;20046;-33
2023/08/26 06:53:14;;;;;;;6.85;2.97;;;;;;;24.22;48.61;101011.34;4996204;28;20155;-33
2023/08/26 06:55:41;;;;;;;6.53;3.17;;;;;;;24.22;49.20;101022.19;5003561;28;20049;-33
2023/08/26 06:58:07;;;;;;;4.72;2.45;;;;;;;24.21;49.30;101026.75;5003316;28;20093;-33
2023/08/26 07:00:34;;;;;;;4.93;3.00;;;;;;;24.22;48.66;101024.91;5003350;28;20077;-33
2023/08/26 07:03:00;;;;;;;4.72;2.50;;;;;;;24.22;49.54;101020.31;5005650;28;20046;-33
2023/08/26 07:05:27;;;;;;;5.88;2.80;;;;;;;24.24;48.65;101020.97;5005260;28;20374;-33
2023/08/26 07:07:54;;;;;;;4.80;2.10;;;;;;;24.23;49.25;101029.28;5001635;28;20053;-33
2023/08/26 07:10:21;;;;;;;5.53;2.80;;;;;;;24.22;49.10;101028.44;5000507;28;20440;-33
2023/08/26 07:12:47;;;;;;;6.72;2.83;;;;;;;24.23;48.85;101035.53;5008862;28;20100;-33
2023/08/26 07:15:14;;;;;;;5.28;2.15;;;;;;;24.22;48.83;101039.28;5001125;28;20128;-33
2023/08/26 07:17:41;;;;;;;5.43;2.63;;;;;;;24.23;48.89;101056.34;5001085;28;20148;-33
2023/08/26 07:20:10;;;;;;;3.78;2.10;;;;;;;24.23;48.75;101056.34;5003161;28;20101;-33
2023/08/26 07:22:37;;;;;;;4.40;2.28;;;;;;;24.23;49.13;101056.34;5003017;28;20769;-33
2023/08/26 07:25:04;;;;;;;6.55;2.38;;;;;;;24.23;48.73;101051.78;5000402;28;20434;-33
2023/08/26 07:27:30;;;;;;;3.70;2.13;;;;;;;24.22;48.56;101057.41;4999498;28;20402;-33
2023/08/26 07:29:57;;;;;;;4.05;2.22;;;;;;;24.22;48.88;101057.41;4999690;28;20078;-33
2023/08/26 07:32:24;;;;;;;4.25;1.58;;;;;;;24.21;48.62;101077.41;5001586;28;20615;-33
2023/08/26 07:34:52;;;;;;;4.65;1.90;;;;;;;24.22;49.05;101079.06;4999849;28;20137;-33
2023/08/26 07:37:18;;;;;;;2.55;1.52;;;;;;;24.20;48.95;101078.41;4998516;28;20100;-33
2023/08/26 07:39:48;;;;;;;3.78;1.95;;;;;;;24.20;48.16;101068.44;5001053;28;20777;-34
2023/08/26 07:42:14;;;;;;;4.05;1.83;;;;;;;24.21;48.51;101074.69;5001952;28;20850;-33
2023/08/26 07:44:41;;;;;;;5.57;2.17;;;;;;;24.20;48.65;101070.28;5000248;28;20133;-33
2023/08/26 07:47:08;;;;;;;6.22;2.25;;;;;;;24.19;48.80;101080.28;5002241;28;20377;-33
2023/08/26 07:49:34;;;;;;;5.00;2.05;;;;;;;24.19;48.66;101071.31;5000903;28;20061;-33
2023/08/26 07:52:01;;;;;;;4.88;2.15;;;;;;;24.17;48.59;101079.63;5001671;28;20069;-33
2023/08/26 07:54:28;;;;;;;4.93;2.15;;;;;;;24.14;48.25;101070.00;5000331;28;20525;-33
2023/08/26 07:56:55;;;;;;;5.63;2.10;;;;;;;24.13;48.50;101070.22;4999850;28;20045;-33
2023/08/26 07:59:21;;;;;;;5.20;1.92;;;;;;;24.12;47.67;101073.91;5000964;28;20043;-33
2023/08/26 08:01:48;;;;;;;5.18;2.10;;;;;;;24.11;47.83;101064.13;4997686;28;20409;-33
2023/08/26 08:04:14;;;;;;;4.15;1.73;;;;;;;24.09;48.01;101067.03;4999872;28;21654;-33
2023/08/26 08:06:41;;;;;;;7.00;2.00;;;;;;;24.08;47.78;101073.50;4996453;28;20100;-33
2023/08/26 08:09:09;;;;;;;4.35;2.03;;;;;;;24.09;48.12;101071.63;4997495;28;20139;-33
2023/08/26 08:11:35;;;;;;;3.83;1.63;;;;;;;24.08;47.51;101068.06;5002758;28;20096;-33
2023/08/26 08:14:02;;;;;;;4.13;1.80;;;;;;;24.09;47.50;101075.16;5000384;28;20054;-33
2023/08/26 08:16:29;;;;;;;4.45;1.85;;;;;;;24.09;47.70;101067.03;5005032;28;20128;-33
2023/08/26 08:18:55;;;;;;;3.95;1.67;;;;;;;24.11;48.08;101064.13;4997560;28;20093;-33
2023/08/26 08:21:22;;;;;;;5.65;2.03;;;;;;;24.11;47.77;101069.53;5001480;28;20045;-33
2023/08/26 08:23:48;;;;;;;4.18;1.50;;;;;;;24.12;47.50;101082.03;5000228;28;20054;-33
2023/08/26 08:26:16;;;;;;;4.35;1.50;;;;;;;24.12;48.13;101076.63;5002347;28;20042;-33
2023/08/26 08:28:43;;;;;;;4.43;1.77;;;;;;;24.13;48.18;101078.34;5000754;28;20081;-34
2023/08/26 08:31:09;;;;;;;3.15;1.25;;;;;;;24.13;47.70;101076.47;5003216;28;20107;-33
2023/08/26 08:33:36;;;;;;;7.05;1.90;;;;;;;24.16;47.87;101071.69;5002300;28;20136;-33
2023/08/26 08:36:03;;;;;;;4.95;1.42;;;;;;;24.14;47.85;101078.13;5003646;28;20642;-33
2023/08/26 08:38:30;;;;;;;3.90;1.35;;;;;;;24.16;47.27;101077.94;5004170;28;20061;-33
2023/08/26 08:40:58;;;;;;;2.85;1.33;;;;;;;24.18;48.13;101075.06;4997591;28;20050;-33
2023/08/26 08:43:30;;;;;;;3.45;1.17;;;;;;;24.18;47.70;101070.47;4998700;28;20339;-33
2023/08/26 08:45:57;;;;;;;4.35;1.42;;;;;;;24.20;47.53;101081.97;5001177;28;20054;-33
2023/08/26 08:48:24;;;;;;;3.08;1.35;;;;;;;24.19;47.79;101072.16;4998776;28;20494;-33
2023/08/26 08:50:53;;;;;;;3.47;1.15;;;;;;;24.19;47.67;101077.56;5003592;28;20449;-34
2023/08/26 08:53:28;;;;;;;4.72;1.27;;;;;;;24.20;47.46;101091.94;4998981;28;20437;-33
2023/08/26 08:55:56;;;;;;;4.97;1.35;;;;;;;24.22;47.21;101087.19;4999332;28;20046;-34
2023/08/26 08:58:23;;;;;;;4.38;1.30;;;;;;;24.22;47.62;101079.91;4998494;28;20077;-33
2023/08/26 09:00:51;;;;;;;3.42;1.10;;;;;;;24.25;46.89;101092.25;4998425;28;20045;-33
2023/08/26 09:03:18;;;;;;;3.13;0.95;;;;;;;24.25;47.10;101094.94;4996644;28;20144;-33
2023/08/26 09:05:45;;;;;;;2.53;1.10;;;;;;;24.26;47.42;101088.50;5000486;28;20371;-33
2023/08/26 09:08:14;;;;;;;2.20;1.15;;;;;;;24.26;47.15;101093.91;4996933;28;20136;-34
2023/08/26 09:10:40;;;;;;;3.55;0.90;;;;;;;24.28;46.79;101081.88;4999510;28;20450;-33
2023/08/26 09:13:07;;;;;;;9.57;1.38;;;;;;;24.29;46.69;101088.13;4999478;28;20050;-34
2023/08/26 09:15:33;;;;;;;3.40;1.10;;;;;;;24.29;46.58;101083.53;5000858;28;20140;-33
2023/08/26 09:18:00;;;;;;;2.80;1.10;;;;;;;24.31;47.25;101077.91;5001802;28;20074;-33
2023/08/26 09:20:29;;;;;;;4.78;1.15;;;;;;;24.32;47.18;101077.75;5000400;28;20058;-33
2023/08/26 09:23:05;;;;;;;2.17;1.08;;;;;;;24.34;46.82;101082.97;5000376;28;20077;-33
2023/08/26 09:25:32;;;;;;;4.25;0.90;;;;;;;24.36;47.02;101073.63;4999075;28;20136;-33
2023/08/26 09:27:59;;;;;;;4.65;1.27;;;;;;;24.39;46.68;101088.69;4999502;28;20342;-33
2023/08/26 09:30:26;;;;;;;4.18;2.25;;;;;;;24.41;46.33;101086.63;4996335;28;20073;-33
2023/08/26 09:32:53;;;;;;;7.78;3.03;;;;;;;24.46;46.24;101096.91;4997087;28;20065;-33
2023/08/26 09:35:20;;;;;;;7.78;3.45;;;;;;;24.45;46.86;101090.66;5002524;28;20498;-33
2023/08/26 09:38:08;;;;;;;6.18;2.80;;;;;;;24.48;45.81;101109.22;4999063;28;20061;-33
2023/08/26 09:40:34;;;;;;;4.57;2.53;;;;;;;24.50;46.03;101101.75;5000110;28;20069;-33
2023/08/26 09:43:04;;;;;;;5.68;2.85;;;;;;;24.53;46.49;101103.25;5001980;28;20078;-33
2023/08/26 09:45:35;;;;;;;4.88;2.63;;;;;;;24.54;46.40;101111.19;5002202;28;20042;-34
2023/08/26 09:48:02;;;;;;;5.82;2.25;;;;;;;24.57;46.48;101105.38;4999698;28;20085;-34
2023/08/26 09:50:33;;;;;;;5.13;2.22;;;;;;;24.57;46.32;101108.09;5002857;28;20053;-34
2023/08/26 09:53:00;;;;;;;5.45;2.40;;;;;;;24.59;46.21;101100.59;4997772;28;20501;-34
2023/08/26 09:55:27;;;;;;;3.97;1.80;;;;;;;24.63;46.26;101101.06;5002294;28;20064;-34
2023/08/26 09:57:54;;;;;;;3.88;1.73;;;;;;;24.66;46.25;101113.41;5003710;28;20058;-34
2023/08/26 10:00:21;;;;;;;2.58;1.55;;;;;;;24.67;46.10;101107.78;5002230;28;20084;-33
2023/08/26 10:02:49;;;;;;;4.22;1.75;;;;;;;24.68;46.44;101116.75;4999504;28;20520;-33
2023/08/26 10:05:18;;;;;;;4.85;1.35;;;;;;;24.70;46.11;101115.53;5000458;28;20046;-33
2023/08/26 10:07:50;;;;;;;3.78;1.40;;;;;;;24.71;46.42;101103.66;4999614;28;20197;-33
2023/08/26 10:10:28;;;;;;;4.20;1.60;;;;;;;24.72;46.26;101094.47;4997357;28;20111;-33
2023/08/26 10:13:19;;;;;;;4.03;1.30;;;;;;;24.75;46.45;101095.97;4997105;28;20483;-34
2023/08/26 10:15:50;;;;;;;2.28;1.17;;;;;;;24.77;46.55;101107.47;5003012;28;20054;-33
2023/08/26 10:18:27;;;;;;;2.60;1.42;;;;;;;24.77;46.53;101102.06;5004976;28;20069;-33
2023/08/26 10:20:55;;;;;;;6.72;1.30;;;;;;;24.79;46.22;101105.41;5006286;28;20521;-33
2023/08/26 10:23:24;;;;;;;2.20;1.08;;;;;;;24.78;46.44;101110.00;5002881;28;20112;-34
2023/08/26 10:25:52;;;;;;;2.85;1.08;;;;;;;24.79;46.64;101100.81;5002346;28;20441;-33
2023/08/26 10:28:20;;;;;;;2.88;1.20;;;;;;;24.78;46.53;101099.16;5004817;28;20115;-33
2023/08/26 10:30:47;;;;;;;8.80;1.00;;;;;;;24.79;46.05;101099.97;5006391;28;20046;-33
2023/08/26 10:33:13;;;;;;;3.33;1.20;;;;;;;24.79;46.03;101099.97;5007282;28;20097;-33
2023/08/26 10:35:40;;;;;;;3.10;1.17;;;;;;;24.81;46.48;101097.94;5006483;28;20354;-33
2023/08/26 10:38:09;;;;;;;13.30;7.78;;;;;;;24.83;46.21;101101.28;4995793;28;20312;-34
2023/08/26 10:40:35;;;;;;;18.23;10.25;;;;;;;24.84;46.32;101092.97;4991071;28;20085;-33
2023/08/26 10:43:05;;;;;;;15.65;9.50;;;;;;;24.86;46.75;101096.31;4988301;28;20058;-34
2023/08/26 10:45:31;;;;;;;19.15;10.38;;;;;;;24.91;46.43;101095.72;4997157;28;20143;-33
2023/08/26 10:48:00;;;;;;;18.52;11.55;;;;;;;24.94;46.07;101087.22;4999471;28;21222;-33
2023/08/26 10:50:28;;;;;;;15.40;8.50;;;;;;;24.95;46.41;101080.75;5001079;28;20050;-34
2023/08/26 10:52:59;;;;;;;14.88;7.28;;;;;;;24.97;46.29;101083.28;5001069;28;20394;-34
2023/08/26 10:55:28;;;;;;;10.52;5.80;;;;;;;24.99;46.35;101084.75;4999177;28;20049;-34
2023/08/26 10:58:06;;;;;;;10.55;5.60;;;;;;;25.01;46.15;101082.69;4999594;28;20057;-34
2023/08/26 11:00:33;;;;;;;13.07;4.28;;;;;;;25.05;45.68;101080.44;4996808;28;20637;-34
2023/08/26 11:03:03;;;;;;;11.93;3.90;;;;;;;25.05;45.63;101075.84;4999416;28;20134;-34
2023/08/26 11:05:30;;;;;;;5.50;3.40;;;;;;;25.07;45.64;101073.75;4997787;28;20058;-34
2023/08/26 11:07:57;;;;;;;6.00;2.83;;;;;;;25.07;45.70;101076.47;4996692;28;20133;-34
2023/08/26 11:10:32;;;;;;;6.45;2.47;;;;;;;25.08;45.45;101080.03;4999727;28;20054;-33
2023/08/26 11:13:00;;;;;;;6.60;2.20;;;;;;;25.09;45.29;101079.03;4998009;28;20112;-34
2023/08/26 11:15:46;;;;;;;6.50;2.00;;;;;;;25.05;45.70;101077.72;4997623;28;20104;-34
2023/08/26 11:18:13;;;;;;;2.53;1.65;;;;;;;25.06;45.83;101074.81;4998952;28;20050;-33
2023/08/26 11:20:40;;;;;;;8.02;1.40;;;;;;;25.05;45.68;101073.13;5001115;28;20780;-34
2023/08/26 11:23:07;;;;;;;5.00;2.13;;;;;;;25.04;45.17;101068.72;4996929;28;20050;-33
2023/08/26 11:25:33;;;;;;;3.53;1.45;;;;;;;25.03;45.59;101075.19;4996071;28;20104;-34